sensor_id;sensor_type;location;lat;lon;timestamp;P1;durP1;ratioP1;P2;durP2;ratioP2
5163;SDS011;2601;50.224;10.126;2022-12-20T04:08:35;53.27;;;27.73;;
5163;SDS011;2601;50.224;10.126;2022-12-20T04:11:01;51.97;;;28.97;;
5163;SDS011;2601;50.224;10.126;2022-12-20T04:13:43;64.67;;;31.57;;
5163;SDS011;2601;50.224;10.126;2022-12-20T04:16:14;57.70;;;30.40;;
5163;SDS011;2601;50.224;10.126;2022-12-20T04:18:41;65.03;;;32.50;;
5163;SDS011;2601;50.224;10.126;2022-12-20T04:21:07;60.60;;;32.10;;
5163;SDS011;2601;50.224;10.126;2022-12-20T04:23:34;67.20;;;31.53;;
5163;SDS011;2601;50.224;10.126;2022-12-20T04:26:01;71.10;;;35.13;;
5163;SDS011;2601;50.224;10.126;2022-12-20T04:28:28;82.07;;;37.63;;
5163;SDS011;2601;50.224;10.126;2022-12-20T04:30:54;82.90;;;39.13;;
5163;SDS011;2601;50.224;10.126;2022-12-20T04:33:21;76.63;;;38.67;;
5163;SDS011;2601;50.224;10.126;2022-12-20T04:35:47;79.20;;;36.83;;
5163;SDS011;2601;50.224;10.126;2022-12-20T04:38:13;84.50;;;39.57;;
5163;SDS011;2601;50.224;10.126;2022-12-20T04:40:39;75.67;;;36.53;;
5163;SDS011;2601;50.224;10.126;2022-12-20T04:43:04;65.67;;;33.47;;
5163;SDS011;2601;50.224;10.126;2022-12-20T04:45:30;71.10;;;36.10;;
5163;SDS011;2601;50.224;10.126;2022-12-20T04:47:56;66.13;;;34.47;;
5163;SDS011;2601;50.224;10.126;2022-12-20T04:50:22;83.60;;;41.00;;
5163;SDS011;2601;50.224;10.126;2022-12-20T04:52:47;79.90;;;39.17;;
5163;SDS011;2601;50.224;10.126;2022-12-20T04:55:35;82.50;;;39.73;;
5163;SDS011;2601;50.224;10.126;2022-12-20T04:58:02;78.80;;;37.87;;
5163;SDS011;2601;50.224;10.126;2022-12-20T05:00:28;75.87;;;36.90;;
5163;SDS011;2601;50.224;10.126;2022-12-20T05:02:54;62.20;;;32.50;;
5163;SDS011;2601;50.224;10.126;2022-12-20T05:05:20;66.57;;;33.00;;
5163;SDS011;2601;50.224;10.126;2022-12-20T05:07:45;69.60;;;32.50;;
5163;SDS011;2601;50.224;10.126;2022-12-20T05:10:11;62.90;;;31.97;;
5163;SDS011;2601;50.224;10.126;2022-12-20T05:12:37;65.33;;;30.30;;
5163;SDS011;2601;50.224;10.126;2022-12-20T05:15:03;58.00;;;31.07;;
5163;SDS011;2601;50.224;10.126;2022-12-20T05:17:29;59.97;;;30.60;;
5163;SDS011;2601;50.224;10.126;2022-12-20T05:19:54;76.30;;;38.80;;
5163;SDS011;2601;50.224;10.126;2022-12-20T05:22:20;75.67;;;34.77;;
5163;SDS011;2601;50.224;10.126;2022-12-20T05:25:04;95.67;;;44.73;;
5163;SDS011;2601;50.224;10.126;2022-12-20T05:27:49;123.80;;;58.83;;
5163;SDS011;2601;50.224;10.126;2022-12-20T05:30:15;130.90;;;60.83;;
5163;SDS011;2601;50.224;10.126;2022-12-20T05:32:40;120.50;;;59.40;;
5163;SDS011;2601;50.224;10.126;2022-12-20T05:35:06;128.70;;;57.97;;
5163;SDS011;2601;50.224;10.126;2022-12-20T05:37:33;302.97;;;113.50;;
5163;SDS011;2601;50.224;10.126;2022-12-20T05:39:58;149.47;;;64.00;;
5163;SDS011;2601;50.224;10.126;2022-12-20T05:42:24;103.17;;;46.47;;
5163;SDS011;2601;50.224;10.126;2022-12-20T05:44:50;120.33;;;55.50;;
5163;SDS011;2601;50.224;10.126;2022-12-20T05:47:15;96.03;;;43.13;;
5163;SDS011;2601;50.224;10.126;2022-12-20T05:49:41;91.50;;;40.07;;
5163;SDS011;2601;50.224;10.126;2022-12-20T05:52:07;76.80;;;37.70;;
5163;SDS011;2601;50.224;10.126;2022-12-20T05:54:33;77.67;;;36.93;;
5163;SDS011;2601;50.224;10.126;2022-12-20T05:56:58;69.67;;;32.90;;
5163;SDS011;2601;50.224;10.126;2022-12-20T05:59:24;64.10;;;34.47;;
5163;SDS011;2601;50.224;10.126;2022-12-20T06:01:50;116.93;;;52.93;;
5163;SDS011;2601;50.224;10.126;2022-12-20T06:04:15;86.10;;;42.90;;
5163;SDS011;2601;50.224;10.126;2022-12-20T06:06:41;102.77;;;49.80;;
5163;SDS011;2601;50.224;10.126;2022-12-20T06:09:07;72.47;;;34.93;;
5163;SDS011;2601;50.224;10.126;2022-12-20T06:11:32;79.33;;;39.60;;
5163;SDS011;2601;50.224;10.126;2022-12-20T06:13:58;82.03;;;42.13;;
5163;SDS011;2601;50.224;10.126;2022-12-20T06:16:24;77.53;;;40.47;;
5163;SDS011;2601;50.224;10.126;2022-12-20T06:18:50;84.07;;;38.37;;
5163;SDS011;2601;50.224;10.126;2022-12-20T06:21:16;78.37;;;36.83;;
5163;SDS011;2601;50.224;10.126;2022-12-20T06:23:42;70.87;;;34.07;;
5163;SDS011;2601;50.224;10.126;2022-12-20T06:26:08;96.47;;;47.77;;
5163;SDS011;2601;50.224;10.126;2022-12-20T06:28:34;122.43;;;55.17;;
5163;SDS011;2601;50.224;10.126;2022-12-20T06:31:07;187.13;;;76.93;;
5163;SDS011;2601;50.224;10.126;2022-12-20T06:33:34;133.53;;;55.40;;
5163;SDS011;2601;50.224;10.126;2022-12-20T06:36:00;191.70;;;80.20;;
5163;SDS011;2601;50.224;10.126;2022-12-20T15:34:32;92.53;;;40.97;;
5163;SDS011;2601;50.224;10.126;2022-12-20T15:37:00;109.23;;;51.40;;
5163;SDS011;2601;50.224;10.126;2022-12-20T15:39:27;111.50;;;48.67;;
5163;SDS011;2601;50.224;10.126;2022-12-20T15:41:53;97.60;;;45.10;;
5163;SDS011;2601;50.224;10.126;2022-12-20T15:44:24;92.30;;;42.40;;
5163;SDS011;2601;50.224;10.126;2022-12-20T15:46:52;92.20;;;45.23;;
5163;SDS011;2601;50.224;10.126;2022-12-20T15:49:19;94.97;;;47.20;;
5163;SDS011;2601;50.224;10.126;2022-12-20T15:51:56;99.57;;;48.73;;
5163;SDS011;2601;50.224;10.126;2022-12-20T15:54:26;94.60;;;49.37;;
5163;SDS011;2601;50.224;10.126;2022-12-20T15:56:55;101.67;;;49.97;;
5163;SDS011;2601;50.224;10.126;2022-12-20T15:59:22;143.17;;;57.90;;
5163;SDS011;2601;50.224;10.126;2022-12-20T16:01:47;118.80;;;53.47;;
5163;SDS011;2601;50.224;10.126;2022-12-20T16:04:15;128.67;;;55.30;;
5163;SDS011;2601;50.224;10.126;2022-12-20T16:06:42;118.77;;;55.30;;
5163;SDS011;2601;50.224;10.126;2022-12-20T16:09:09;107.60;;;53.07;;
5163;SDS011;2601;50.224;10.126;2022-12-20T16:11:35;115.83;;;57.67;;
5163;SDS011;2601;50.224;10.126;2022-12-20T16:14:01;119.53;;;58.80;;
5163;SDS011;2601;50.224;10.126;2022-12-20T16:16:33;111.03;;;54.83;;
5163;SDS011;2601;50.224;10.126;2022-12-20T16:19:00;116.27;;;49.40;;
5163;SDS011;2601;50.224;10.126;2022-12-20T16:21:33;96.07;;;46.47;;
5163;SDS011;2601;50.224;10.126;2022-12-20T16:24:00;92.00;;;50.00;;
5163;SDS011;2601;50.224;10.126;2022-12-20T16:26:26;99.13;;;49.10;;
5163;SDS011;2601;50.224;10.126;2022-12-20T16:28:53;96.77;;;45.77;;
5163;SDS011;2601;50.224;10.126;2022-12-20T16:31:21;90.47;;;43.10;;
5163;SDS011;2601;50.224;10.126;2022-12-20T16:34:00;76.73;;;39.67;;
5163;SDS011;2601;50.224;10.126;2022-12-20T16:36:27;74.27;;;38.07;;
5163;SDS011;2601;50.224;10.126;2022-12-20T16:38:53;87.07;;;40.37;;
5163;SDS011;2601;50.224;10.126;2022-12-20T16:41:20;72.03;;;40.87;;
5163;SDS011;2601;50.224;10.126;2022-12-20T16:43:52;87.13;;;44.00;;
5163;SDS011;2601;50.224;10.126;2022-12-20T16:46:19;89.00;;;45.33;;
5163;SDS011;2601;50.224;10.126;2022-12-20T16:48:47;118.13;;;55.70;;
5163;SDS011;2601;50.224;10.126;2022-12-20T16:53:59;148.87;;;67.60;;
5163;SDS011;2601;50.224;10.126;2022-12-20T16:56:27;124.20;;;60.83;;
5163;SDS011;2601;50.224;10.126;2022-12-20T16:58:53;122.77;;;60.37;;
5163;SDS011;2601;50.224;10.126;2022-12-20T17:01:20;120.70;;;58.43;;
5163;SDS011;2601;50.224;10.126;2022-12-20T17:03:48;143.03;;;72.50;;
5163;SDS011;2601;50.224;10.126;2022-12-20T17:06:14;142.90;;;69.53;;
5163;SDS011;2601;50.224;10.126;2022-12-20T17:08:41;162.43;;;81.60;;
5163;SDS011;2601;50.224;10.126;2022-12-20T17:13:43;127.67;;;60.37;;
5163;SDS011;2601;50.224;10.126;2022-12-20T17:16:10;138.53;;;62.67;;
5163;SDS011;2601;50.224;10.126;2022-12-20T17:18:37;137.20;;;68.50;;
5163;SDS011;2601;50.224;10.126;2022-12-20T17:21:07;122.53;;;60.30;;
5163;SDS011;2601;50.224;10.126;2022-12-20T17:23:48;128.00;;;60.93;;
5163;SDS011;2601;50.224;10.126;2022-12-20T17:26:16;119.03;;;60.13;;
5163;SDS011;2601;50.224;10.126;2022-12-20T17:28:44;124.27;;;62.90;;
5163;SDS011;2601;50.224;10.126;2022-12-20T17:31:30;112.33;;;54.07;;
5163;SDS011;2601;50.224;10.126;2022-12-20T17:34:03;129.37;;;56.50;;
5163;SDS011;2601;50.224;10.126;2022-12-20T17:36:30;107.87;;;52.73;;
5163;SDS011;2601;50.224;10.126;2022-12-20T17:38:56;104.87;;;52.37;;
5163;SDS011;2601;50.224;10.126;2022-12-20T17:43:49;123.23;;;60.63;;
5163;SDS011;2601;50.224;10.126;2022-12-20T17:46:15;118.60;;;61.77;;
5163;SDS011;2601;50.224;10.126;2022-12-20T17:48:41;108.93;;;52.80;;
5163;SDS011;2601;50.224;10.126;2022-12-20T17:51:24;88.27;;;50.30;;
5163;SDS011;2601;50.224;10.126;2022-12-20T17:53:55;98.47;;;50.00;;
5163;SDS011;2601;50.224;10.126;2022-12-20T17:56:22;166.73;;;78.57;;
5163;SDS011;2601;50.224;10.126;2022-12-20T17:58:50;130.37;;;63.80;;
5163;SDS011;2601;50.224;10.126;2022-12-20T18:03:50;153.53;;;71.53;;
5163;SDS011;2601;50.224;10.126;2022-12-20T18:06:17;119.47;;;59.80;;
5163;SDS011;2601;50.224;10.126;2022-12-20T18:08:50;137.03;;;68.50;;
5163;SDS011;2601;50.224;10.126;2022-12-20T18:11:18;141.80;;;72.93;;
5163;SDS011;2601;50.224;10.126;2022-12-20T18:13:45;138.40;;;69.50;;
5163;SDS011;2601;50.224;10.126;2022-12-20T18:16:13;154.40;;;76.97;;
5163;SDS011;2601;50.224;10.126;2022-12-20T18:18:40;136.20;;;70.10;;
5163;SDS011;2601;50.224;10.126;2022-12-20T18:21:07;151.33;;;74.73;;
5163;SDS011;2601;50.224;10.126;2022-12-20T18:23:34;162.50;;;75.03;;
5163;SDS011;2601;50.224;10.126;2022-12-20T18:26:08;133.27;;;66.23;;
5163;SDS011;2601;50.224;10.126;2022-12-20T18:28:39;119.13;;;55.63;;
5163;SDS011;2601;50.224;10.126;2022-12-20T18:31:07;108.57;;;57.43;;
5163;SDS011;2601;50.224;10.126;2022-12-20T18:33:34;93.57;;;50.00;;
5163;SDS011;2601;50.224;10.126;2022-12-20T18:36:02;91.13;;;45.67;;
5163;SDS011;2601;50.224;10.126;2022-12-20T18:38:30;98.23;;;47.40;;
5163;SDS011;2601;50.224;10.126;2022-12-20T18:41:00;97.70;;;48.97;;
5163;SDS011;2601;50.224;10.126;2022-12-20T18:43:29;82.37;;;41.30;;
5163;SDS011;2601;50.224;10.126;2022-12-20T18:45:55;108.40;;;54.70;;
5163;SDS011;2601;50.224;10.126;2022-12-20T18:48:27;104.27;;;46.60;;
5163;SDS011;2601;50.224;10.126;2022-12-20T18:50:53;99.43;;;51.53;;
5163;SDS011;2601;50.224;10.126;2022-12-20T18:53:18;107.53;;;53.00;;
5163;SDS011;2601;50.224;10.126;2022-12-20T18:55:44;93.10;;;50.50;;
5163;SDS011;2601;50.224;10.126;2022-12-20T18:58:09;106.30;;;54.13;;
5163;SDS011;2601;50.224;10.126;2022-12-20T19:00:37;100.67;;;50.90;;
5163;SDS011;2601;50.224;10.126;2022-12-20T19:03:04;120.50;;;58.07;;
5163;SDS011;2601;50.224;10.126;2022-12-20T19:05:33;113.27;;;58.40;;
5163;SDS011;2601;50.224;10.126;2022-12-20T19:07:59;169.53;;;75.50;;
5163;SDS011;2601;50.224;10.126;2022-12-20T19:10:25;252.53;;;110.67;;
5163;SDS011;2601;50.224;10.126;2022-12-20T19:12:54;186.30;;;82.50;;
5163;SDS011;2601;50.224;10.126;2022-12-20T19:15:20;119.50;;;56.10;;
5163;SDS011;2601;50.224;10.126;2022-12-20T19:17:45;136.63;;;67.70;;
5163;SDS011;2601;50.224;10.126;2022-12-20T19:20:11;148.33;;;72.40;;
5163;SDS011;2601;50.224;10.126;2022-12-20T19:22:37;140.23;;;66.60;;
5163;SDS011;2601;50.224;10.126;2022-12-20T19:25:02;148.60;;;70.67;;
5163;SDS011;2601;50.224;10.126;2022-12-20T19:27:28;136.07;;;69.67;;
5163;SDS011;2601;50.224;10.126;2022-12-20T19:29:54;145.57;;;72.60;;
5163;SDS011;2601;50.224;10.126;2022-12-20T19:32:20;144.77;;;72.50;;
5163;SDS011;2601;50.224;10.126;2022-12-20T19:34:45;153.23;;;71.73;;
5163;SDS011;2601;50.224;10.126;2022-12-20T19:37:11;139.40;;;68.40;;
5163;SDS011;2601;50.224;10.126;2022-12-20T19:39:37;129.13;;;59.00;;
5163;SDS011;2601;50.224;10.126;2022-12-20T19:42:03;116.77;;;60.40;;
5163;SDS011;2601;50.224;10.126;2022-12-20T19:44:28;100.73;;;52.77;;
5163;SDS011;2601;50.224;10.126;2022-12-20T19:46:54;95.20;;;45.93;;
5163;SDS011;2601;50.224;10.126;2022-12-20T19:49:20;122.57;;;60.60;;
5163;SDS011;2601;50.224;10.126;2022-12-20T19:51:46;154.00;;;83.43;;
5163;SDS011;2601;50.224;10.126;2022-12-20T19:54:12;125.23;;;66.37;;
5163;SDS011;2601;50.224;10.126;2022-12-20T19:56:38;96.37;;;48.20;;
5163;SDS011;2601;50.224;10.126;2022-12-20T19:59:03;89.73;;;51.40;;
5163;SDS011;2601;50.224;10.126;2022-12-20T20:01:29;86.90;;;46.43;;
5163;SDS011;2601;50.224;10.126;2022-12-20T20:03:55;85.27;;;44.60;;
5163;SDS011;2601;50.224;10.126;2022-12-20T20:06:23;83.87;;;45.00;;
5163;SDS011;2601;50.224;10.126;2022-12-20T20:08:49;95.83;;;47.43;;
5163;SDS011;2601;50.224;10.126;2022-12-20T20:11:16;106.57;;;47.73;;
5163;SDS011;2601;50.224;10.126;2022-12-20T20:13:43;73.93;;;38.93;;
5163;SDS011;2601;50.224;10.126;2022-12-20T20:16:09;74.27;;;41.37;;
5163;SDS011;2601;50.224;10.126;2022-12-20T20:18:36;75.23;;;41.27;;
5163;SDS011;2601;50.224;10.126;2022-12-20T20:21:07;83.07;;;44.73;;
5163;SDS011;2601;50.224;10.126;2022-12-20T20:23:34;83.60;;;45.37;;
5163;SDS011;2601;50.224;10.126;2022-12-20T20:26:03;94.13;;;44.50;;
5163;SDS011;2601;50.224;10.126;2022-12-20T20:28:31;70.17;;;37.50;;
5163;SDS011;2601;50.224;10.126;2022-12-20T20:30:56;74.70;;;37.80;;
5163;SDS011;2601;50.224;10.126;2022-12-20T20:33:22;68.57;;;36.93;;
5163;SDS011;2601;50.224;10.126;2022-12-20T20:35:53;75.80;;;37.43;;
5163;SDS011;2601;50.224;10.126;2022-12-20T20:38:23;69.00;;;37.90;;
5163;SDS011;2601;50.224;10.126;2022-12-20T20:40:49;69.53;;;35.87;;
5163;SDS011;2601;50.224;10.126;2022-12-20T20:43:15;71.10;;;38.70;;
